Time;durP1;ratioP1;P1;durP2;ratioP2;P2;SDS_P1;SDS_P2;PMS_P1;PMS_P2;Temp;Humidity;BMP_temperature;BMP_pressure;BME280_temperature;BME280_humidity;BME280_pressure;Samples;Min_cycle;Max_cycle;Signal;HPM_P1;HPM_P2
2021/11/03 00:02:05;;;;;;;10.93;8.27;;;;;;;;;;5027655;28;20048;-87
2021/11/03 00:04:32;;;;;;;12.88;9.23;;;;;;;;;;5027506;28;20037;-87
2021/11/03 00:06:58;;;;;;;11.45;8.57;;;;;;;;;;5012870;28;20445;-87
2021/11/03 00:09:26;;;;;;;12.35;8.85;;;;;;;;;;5028522;28;20445;-86
2021/11/03 00:11:52;;;;;;;12.98;9.25;;;;;;;;;;5013235;28;20050;-86
2021/11/03 00:14:18;;;;;;;11.70;8.93;;;;;;;;;;5028831;28;20111;-87
2021/11/03 00:16:44;;;;;;;14.07;10.63;;;;;;;;;;5018351;28;20507;-87
2021/11/03 00:19:10;;;;;;;22.48;15.18;;;;;;;;;;5029131;28;20044;-86
2021/11/03 00:21:36;;;;;;;29.23;18.05;;;;;;;;;;5014807;28;20052;-86
2021/11/03 00:24:03;;;;;;;17.60;11.75;;;;;;;;;;5013233;28;20136;-87
2021/11/03 00:26:29;;;;;;;28.80;17.48;;;;;;;;;;5028722;28;20091;-87
2021/11/03 00:28:56;;;;;;;26.63;15.75;;;;;;;;;;5012432;28;20509;-87
2021/11/03 00:31:22;;;;;;;22.80;13.65;;;;;;;;;;5012312;28;20053;-86
2021/11/03 00:33:48;;;;;;;20.88;12.38;;;;;;;;;;5013007;28;20052;-86
2021/11/03 00:36:15;;;;;;;13.80;8.25;;;;;;;;;;5013193;28;20401;-88
2021/11/03 00:38:41;;;;;;;13.15;9.25;;;;;;;;;;5027682;28;20041;-87
2021/11/03 00:41:07;;;;;;;13.90;8.90;;;;;;;;;;5012500;28;20394;-87
2021/11/03 00:43:34;;;;;;;16.58;10.20;;;;;;;;;;5009697;28;20056;-87
2021/11/03 00:46:00;;;;;;;10.90;8.68;;;;;;;;;;5013070;28;20045;-87
2021/11/03 00:48:26;;;;;;;10.05;7.20;;;;;;;;;;5012092;28;20080;-87
2021/11/03 00:50:52;;;;;;;8.45;6.75;;;;;;;;;;5028598;28;20046;-86
2021/11/03 00:53:18;;;;;;;9.95;7.30;;;;;;;;;;5028181;28;20389;-87
2021/11/03 00:55:45;;;;;;;10.55;7.25;;;;;;;;;;5007566;28;20041;-86
2021/11/03 00:58:11;;;;;;;8.70;7.10;;;;;;;;;;5022573;28;20099;-86
2021/11/03 01:00:37;;;;;;;9.02;6.18;;;;;;;;;;5028319;28;20516;-86
2021/11/03 01:03:04;;;;;;;8.27;6.47;;;;;;;;;;5012709;28;20481;-86
2021/11/03 01:05:30;;;;;;;13.15;8.32;;;;;;;;;;5012232;28;20378;-86
2021/11/03 01:07:56;;;;;;;8.60;6.35;;;;;;;;;;5012104;28;20038;-85
2021/11/03 01:10:26;;;;;;;7.60;6.72;;;;;;;;;;5028229;28;20047;-87
2021/11/03 01:12:53;;;;;;;9.80;8.40;;;;;;;;;;5011822;28;20512;-86
2021/11/03 01:15:21;;;;;;;8.27;7.03;;;;;;;;;;5012547;28;20056;-88
2021/11/03 01:17:47;;;;;;;9.77;6.97;;;;;;;;;;5012169;28;20393;-87
2021/11/03 01:20:14;;;;;;;9.57;7.30;;;;;;;;;;5012146;28;20402;-86
2021/11/03 01:22:40;;;;;;;8.73;6.80;;;;;;;;;;5011365;28;20041;-86
2021/11/03 01:25:07;;;;;;;9.38;7.07;;;;;;;;;;5029144;28;20061;-87
2021/11/03 01:27:33;;;;;;;11.80;7.75;;;;;;;;;;5028209;28;20065;-87
2021/11/03 01:30:00;;;;;;;14.60;8.65;;;;;;;;;;5028683;28;20497;-86
2021/11/03 01:32:26;;;;;;;15.50;9.30;;;;;;;;;;5000790;28;20134;-87
2021/11/03 01:34:52;;;;;;;13.23;8.40;;;;;;;;;;5012559;28;20115;-86
2021/11/03 01:37:18;;;;;;;14.32;8.48;;;;;;;;;;5012054;28;20132;-88
2021/11/03 01:39:44;;;;;;;12.57;7.55;;;;;;;;;;5010959;28;20053;-86
2021/11/03 01:42:10;;;;;;;9.82;6.60;;;;;;;;;;5011594;28;20052;-86
2021/11/03 01:44:36;;;;;;;7.35;4.97;;;;;;;;;;5028442;28;20062;-86
2021/11/03 01:47:21;;;;;;;8.02;5.38;;;;;;;;;;5028639;28;20045;-86
2021/11/03 01:49:47;;;;;;;9.82;6.10;;;;;;;;;;5012158;28;20388;-86
2021/11/03 01:52:16;;;;;;;8.80;6.05;;;;;;;;;;5028434;28;20100;-86
2021/11/03 01:54:47;;;;;;;8.13;5.95;;;;;;;;;;5011755;28;20073;-86
2021/11/03 01:57:22;;;;;;;7.38;5.60;;;;;;;;;;5028633;28;20045;-86
2021/11/03 01:59:50;;;;;;;6.70;5.53;;;;;;;;;;5028592;28;20124;-86
2021/11/03 02:02:18;;;;;;;8.18;5.70;;;;;;;;;;5028049;28;20046;-86
2021/11/03 02:04:45;;;;;;;6.68;5.20;;;;;;;;;;5012429;28;20068;-86
2021/11/03 02:07:13;;;;;;;6.50;5.03;;;;;;;;;;5031623;28;20088;-86
2021/11/03 02:09:40;;;;;;;6.25;5.45;;;;;;;;;;5031458;28;20041;-87
2021/11/03 02:12:06;;;;;;;8.35;5.78;;;;;;;;;;5032290;28;20037;-87
2021/11/03 02:14:32;;;;;;;8.90;6.45;;;;;;;;;;5014820;28;20176;-86
2021/11/03 02:16:59;;;;;;;8.85;6.32;;;;;;;;;;5031942;28;20053;-86
2021/11/03 02:19:26;;;;;;;8.32;5.93;;;;;;;;;;5014356;28;20041;-86
2021/11/03 02:21:52;;;;;;;7.78;5.90;;;;;;;;;;5014795;28;20041;-86
2021/11/03 02:24:23;;;;;;;6.82;5.70;;;;;;;;;;5017226;28;20060;-89
2021/11/03 02:26:50;;;;;;;7.13;5.78;;;;;;;;;;5044065;28;20052;-87
2021/11/03 02:29:17;;;;;;;7.82;6.28;;;;;;;;;;5031683;28;20076;-87
2021/11/03 02:31:49;;;;;;;8.10;6.35;;;;;;;;;;5014712;28;20077;-86
2021/11/03 02:34:28;;;;;;;8.30;6.03;;;;;;;;;;5015260;28;20136;-86
2021/11/03 02:36:59;;;;;;;8.52;6.38;;;;;;;;;;5031421;28;20045;-86
2021/11/03 02:39:29;;;;;;;9.55;6.32;;;;;;;;;;5013484;28;20041;-86
2021/11/03 02:41:55;;;;;;;8.65;6.57;;;;;;;;;;5031329;28;20138;-86
2021/11/03 02:44:24;;;;;;;9.80;7.63;;;;;;;;;;5015163;28;20057;-87
2021/11/03 02:46:51;;;;;;;7.57;5.75;;;;;;;;;;5031531;28;20505;-87
2021/11/03 02:49:19;;;;;;;7.20;6.22;;;;;;;;;;5030681;28;20037;-88
2021/11/03 02:51:46;;;;;;;8.00;6.03;;;;;;;;;;5014333;28;20063;-86
2021/11/03 02:54:13;;;;;;;6.82;5.63;;;;;;;;;;5015063;28;20068;-86
2021/11/03 02:56:42;;;;;;;7.28;6.07;;;;;;;;;;5030195;28;20045;-86
2021/11/03 02:59:09;;;;;;;7.82;6.43;;;;;;;;;;5014029;28;20052;-86
2021/11/03 03:01:43;;;;;;;8.43;6.45;;;;;;;;;;5013443;28;20037;-86
2021/11/03 03:04:11;;;;;;;7.88;6.65;;;;;;;;;;5033495;28;20804;-86
2021/11/03 03:06:38;;;;;;;8.32;5.95;;;;;;;;;;5013694;28;20043;-87
2021/11/03 03:09:05;;;;;;;10.15;7.18;;;;;;;;;;5014192;28;20100;-86
2021/11/03 03:11:32;;;;;;;7.13;5.88;;;;;;;;;;5014351;28;20672;-86
2021/11/03 03:13:59;;;;;;;8.35;6.43;;;;;;;;;;5014102;28;20493;-86
2021/11/03 03:16:25;;;;;;;8.55;6.47;;;;;;;;;;5029624;28;20045;-86
2021/11/03 03:18:52;;;;;;;6.93;5.55;;;;;;;;;;5030434;28;20095;-86
2021/11/03 03:21:19;;;;;;;7.38;6.13;;;;;;;;;;5014220;28;20054;-87
2021/11/03 03:23:46;;;;;;;8.50;6.53;;;;;;;;;;5021506;28;20156;-86
2021/11/03 03:26:13;;;;;;;8.13;6.40;;;;;;;;;;5031820;28;20052;-87
2021/11/03 03:28:39;;;;;;;6.82;5.20;;;;;;;;;;5013530;28;20116;-86
2021/11/03 03:31:06;;;;;;;6.00;5.05;;;;;;;;;;5031238;28;20056;-86
2021/11/03 03:33:33;;;;;;;6.70;5.55;;;;;;;;;;5030074;28;20555;-86
2021/11/03 03:35:59;;;;;;;7.32;5.20;;;;;;;;;;5030253;28;20076;-86
2021/11/03 03:38:25;;;;;;;6.55;5.25;;;;;;;;;;5012532;28;20054;-87
2021/11/03 03:40:51;;;;;;;5.88;4.93;;;;;;;;;;5031054;28;20053;-86
2021/11/03 03:43:18;;;;;;;9.60;5.70;;;;;;;;;;5030277;28;20041;-86
2021/11/03 03:45:44;;;;;;;8.13;5.88;;;;;;;;;;5016475;28;20052;-86
2021/11/03 03:48:10;;;;;;;6.95;5.78;;;;;;;;;;5023364;28;20497;-86
2021/11/03 03:50:37;;;;;;;5.97;5.00;;;;;;;;;;5029223;28;20064;-86
2021/11/03 03:53:03;;;;;;;6.13;4.80;;;;;;;;;;5013370;28;20041;-87
2021/11/03 03:55:30;;;;;;;7.20;5.70;;;;;;;;;;5013144;28;20497;-86
2021/11/03 03:57:56;;;;;;;9.52;6.82;;;;;;;;;;5013612;28;20037;-86
2021/11/03 04:00:23;;;;;;;7.68;5.78;;;;;;;;;;5012980;28;20140;-88
2021/11/03 04:02:51;;;;;;;7.10;5.72;;;;;;;;;;5029695;28;20046;-86
2021/11/03 04:05:18;;;;;;;6.32;5.20;;;;;;;;;;5013866;28;20041;-87
2021/11/03 04:07:44;;;;;;;6.75;5.38;;;;;;;;;;5029030;28;20045;-87
2021/11/03 04:10:10;;;;;;;7.68;6.00;;;;;;;;;;5030021;28;20084;-87
2021/11/03 04:12:36;;;;;;;8.57;6.15;;;;;;;;;;5012850;28;20547;-86
2021/11/03 04:15:03;;;;;;;7.88;6.20;;;;;;;;;;5030057;28;20374;-87
2021/11/03 04:17:29;;;;;;;9.93;7.07;;;;;;;;;;5011880;28;20502;-87
2021/11/03 04:19:55;;;;;;;8.65;6.68;;;;;;;;;;5013718;28;20053;-86
2021/11/03 04:22:21;;;;;;;7.70;5.85;;;;;;;;;;5016558;28;20053;-86
2021/11/03 04:24:47;;;;;;;7.88;6.07;;;;;;;;;;5029754;28;20072;-86
2021/11/03 04:27:13;;;;;;;7.25;6.00;;;;;;;;;;5013241;28;20042;-87
2021/11/03 04:29:39;;;;;;;11.23;6.47;;;;;;;;;;5013126;28;20045;-87
2021/11/03 04:32:05;;;;;;;11.20;7.10;;;;;;;;;;5013684;28;20132;-86
2021/11/03 04:34:31;;;;;;;13.98;7.70;;;;;;;;;;5013322;28;20053;-87
2021/11/03 04:36:57;;;;;;;10.15;7.88;;;;;;;;;;5029883;28;20114;-87
2021/11/03 04:39:24;;;;;;;8.82;6.15;;;;;;;;;;5026937;28;20456;-87
2021/11/03 04:41:50;;;;;;;7.35;5.32;;;;;;;;;;5012707;28;20083;-87
2021/11/03 04:44:16;;;;;;;8.23;6.18;;;;;;;;;;5012649;28;20064;-86
2021/11/03 04:46:43;;;;;;;10.93;6.47;;;;;;;;;;5028833;28;20111;-87
2021/11/03 04:49:09;;;;;;;8.50;6.13;;;;;;;;;;5029061;28;20378;-86
2021/11/03 04:51:35;;;;;;;7.97;5.40;;;;;;;;;;5035062;28;20041;-86
2021/11/03 04:54:01;;;;;;;8.30;5.70;;;;;;;;;;5032586;28;20053;-87
2021/11/03 04:56:30;;;;;;;10.10;7.03;;;;;;;;;;5026028;28;20044;-86
2021/11/03 04:58:56;;;;;;;9.50;6.40;;;;;;;;;;5029235;28;20444;-86
2021/11/03 05:01:24;;;;;;;8.05;5.05;;;;;;;;;;5029480;28;20045;-86
2021/11/03 05:03:51;;;;;;;9.13;6.15;;;;;;;;;;5012647;28;20053;-86
2021/11/03 05:06:18;;;;;;;8.48;4.85;;;;;;;;;;5029510;28;20046;-86
2021/11/03 05:08:44;;;;;;;8.00;4.70;;;;;;;;;;5012132;28;20102;-86
2021/11/03 05:11:11;;;;;;;8.75;5.95;;;;;;;;;;5013128;28;20413;-86
2021/11/03 05:13:37;;;;;;;8.45;6.15;;;;;;;;;;5012031;28;20049;-86
2021/11/03 05:16:03;;;;;;;7.35;5.43;;;;;;;;;;5028597;28;20033;-86
2021/11/03 05:18:29;;;;;;;8.30;5.03;;;;;;;;;;5028447;28;20042;-86
2021/11/03 05:20:55;;;;;;;7.93;5.13;;;;;;;;;;5029665;28;20374;-86
2021/11/03 05:23:25;;;;;;;7.90;4.90;;;;;;;;;;5035340;28;20107;-86
2021/11/03 05:25:54;;;;;;;14.48;5.05;;;;;;;;;;5012562;28;20602;-86
2021/11/03 05:28:22;;;;;;;18.13;5.60;;;;;;;;;;5011711;28;20045;-86
2021/11/03 05:30:48;;;;;;;7.28;4.93;;;;;;;;;;5028047;28;20120;-87
2021/11/03 05:33:14;;;;;;;12.30;5.35;;;;;;;;;;5011621;28;20045;-85
2021/11/03 05:35:41;;;;;;;8.85;5.45;;;;;;;;;;5027422;28;20124;-85
2021/11/03 05:38:07;;;;;;;5.93;5.25;;;;;;;;;;5019325;28;20199;-85
2021/11/03 05:40:33;;;;;;;6.05;4.93;;;;;;;;;;5008773;28;20049;-86
2021/11/03 05:43:00;;;;;;;8.10;6.07;;;;;;;;;;5019441;28;20132;-86
2021/11/03 05:45:27;;;;;;;8.60;6.18;;;;;;;;;;5031715;28;20057;-88
2021/11/03 05:47:53;;;;;;;9.15;6.97;;;;;;;;;;5016246;28;20152;-92
2021/11/03 05:50:22;;;;;;;10.32;7.75;;;;;;;;;;5017610;28;20539;-87
2021/11/03 05:52:48;;;;;;;10.98;8.23;;;;;;;;;;5040412;28;20047;-88
2021/11/03 05:55:15;;;;;;;12.35;8.73;;;;;;;;;;5010456;28;20045;-87
2021/11/03 05:57:42;;;;;;;7.32;6.32;;;;;;;;;;5011240;28;20045;-89
2021/11/03 06:00:11;;;;;;;9.23;8.00;;;;;;;;;;5016644;28;20053;-88
2021/11/03 06:02:37;;;;;;;9.52;7.85;;;;;;;;;;5033114;28;20497;-89
2021/11/03 06:05:04;;;;;;;9.13;7.07;;;;;;;;;;5031848;28;20449;-90
2021/11/03 06:07:30;;;;;;;9.68;7.28;;;;;;;;;;5003073;28;20092;-89
2021/11/03 06:09:56;;;;;;;11.48;8.38;;;;;;;;;;5009217;28;20195;-88
2021/11/03 06:12:23;;;;;;;13.60;10.45;;;;;;;;;;5012589;28;20045;-88
2021/11/03 06:14:49;;;;;;;18.58;12.10;;;;;;;;;;5011346;28;20089;-87
2021/11/03 06:17:15;;;;;;;15.80;11.23;;;;;;;;;;5024893;28;20068;-87
2021/11/03 06:19:41;;;;;;;21.92;14.57;;;;;;;;;;5014472;28;20083;-86
2021/11/03 06:22:07;;;;;;;18.20;12.40;;;;;;;;;;5015719;28;20076;-86
2021/11/03 06:24:34;;;;;;;13.30;9.65;;;;;;;;;;5014924;28;20102;-87
2021/11/03 06:27:00;;;;;;;12.30;9.45;;;;;;;;;;5015679;28;20049;-88
2021/11/03 06:29:26;;;;;;;15.40;10.48;;;;;;;;;;5016329;28;20088;-90
2021/11/03 06:31:52;;;;;;;19.95;13.05;;;;;;;;;;5016600;28;20135;-88
2021/11/03 06:34:18;;;;;;;15.07;11.10;;;;;;;;;;5032699;28;20099;-88
2021/11/03 06:36:44;;;;;;;17.52;12.15;;;;;;;;;;5014379;28;20477;-86
2021/11/03 06:39:11;;;;;;;16.90;12.45;;;;;;;;;;5017302;28;20046;-88
2021/11/03 06:41:38;;;;;;;18.15;12.65;;;;;;;;;;5013893;28;20041;-88
2021/11/03 06:44:05;;;;;;;23.33;15.23;;;;;;;;;;5015242;28;20497;-87
2021/11/03 06:46:31;;;;;;;23.35;16.05;;;;;;;;;;5031312;28;20057;-87
2021/11/03 06:48:57;;;;;;;16.60;12.23;;;;;;;;;;5015048;28;20052;-87
2021/11/03 06:51:23;;;;;;;20.45;14.20;;;;;;;;;;5015274;28;20048;-87
2021/11/03 06:53:49;;;;;;;17.52;12.73;;;;;;;;;;5031400;28;20512;-88
2021/11/03 06:56:16;;;;;;;24.27;15.57;;;;;;;;;;5031988;28;20048;-86
2021/11/03 06:58:42;;;;;;;21.08;14.73;;;;;;;;;;5031264;28;20075;-87
2021/11/03 07:01:09;;;;;;;20.67;14.30;;;;;;;;;;5023623;28;20044;-87
2021/11/03 07:03:35;;;;;;;21.85;14.95;;;;;;;;;;5034628;28;20136;-87
2021/11/03 07:06:02;;;;;;;20.92;14.32;;;;;;;;;;5034890;28;20091;-87
2021/11/03 07:08:28;;;;;;;19.92;14.00;;;;;;;;;;5034724;28;20041;-89
2021/11/03 07:10:55;;;;;;;21.05;15.45;;;;;;;;;;5035014;28;20048;-87
2021/11/03 07:13:23;;;;;;;25.20;16.15;;;;;;;;;;5051267;28;20041;-87
2021/11/03 07:15:50;;;;;;;25.30;17.27;;;;;;;;;;5021600;28;20053;-86
2021/11/03 07:18:16;;;;;;;23.65;15.82;;;;;;;;;;5031478;28;20383;-87
2021/11/03 07:20:43;;;;;;;26.35;16.70;;;;;;;;;;5045708;28;20055;-86
2021/11/03 07:23:10;;;;;;;28.25;17.85;;;;;;;;;;5031344;28;20061;-86
2021/11/03 07:25:36;;;;;;;25.55;16.83;;;;;;;;;;5030577;28;20389;-87
2021/11/03 07:28:02;;;;;;;30.98;19.88;;;;;;;;;;5031314;28;20041;-87
2021/11/03 07:30:30;;;;;;;36.40;20.15;;;;;;;;;;5014223;28;20048;-88
2021/11/03 07:32:57;;;;;;;32.50;20.55;;;;;;;;;;5031187;28;20132;-87
2021/11/03 07:35:23;;;;;;;33.65;20.63;;;;;;;;;;5025394;28;20151;-88
2021/11/03 07:37:49;;;;;;;32.28;20.30;;;;;;;;;;5037551;28;20037;-87
2021/11/03 07:40:17;;;;;;;43.85;25.17;;;;;;;;;;5019984;28;20041;-87
2021/11/03 07:42:43;;;;;;;49.47;26.55;;;;;;;;;;5034150;28;20048;-87
2021/11/03 07:45:09;;;;;;;45.78;23.75;;;;;;;;;;5050844;28;20049;-88
2021/11/03 07:47:36;;;;;;;44.20;24.85;;;;;;;;;;5019457;28;20069;-86
2021/11/03 07:50:02;;;;;;;46.97;25.67;;;;;;;;;;5010232;28;20164;-88
2021/11/03 07:52:29;;;;;;;36.10;21.52;;;;;;;;;;5014012;28;20504;-88
2021/11/03 07:54:56;;;;;;;42.60;24.33;;;;;;;;;;5014243;28;20049;-87
2021/11/03 07:57:22;;;;;;;44.97;24.48;;;;;;;;;;5030616;28;20699;-86
2021/11/03 07:59:48;;;;;;;46.75;25.48;;;;;;;;;;5030519;28;20663;-87
2021/11/03 08:02:14;;;;;;;49.10;25.58;;;;;;;;;;5014155;28;20448;-86
2021/11/03 08:04:40;;;;;;;48.65;26.05;;;;;;;;;;5013828;28;20102;-87
2021/11/03 08:07:06;;;;;;;48.45;26.45;;;;;;;;;;5015156;28;20050;-86
2021/11/03 08:09:33;;;;;;;54.67;26.88;;;;;;;;;;5013868;28;20136;-86
2021/11/03 08:12:01;;;;;;;47.95;26.13;;;;;;;;;;5013960;28;20099;-85
2021/11/03 08:14:29;;;;;;;45.00;25.13;;;;;;;;;;5013966;28;20047;-85
2021/11/03 08:17:10;;;;;;;60.20;29.75;;;;;;;;;;5029903;28;20115;-85
2021/11/03 08:19:41;;;;;;;57.28;27.50;;;;;;;;;;5046618;28;20052;-86
2021/11/03 08:22:08;;;;;;;58.83;27.63;;;;;;;;;;5029474;28;20046;-85
2021/11/03 08:24:34;;;;;;;49.80;27.02;;;;;;;;;;5012809;28;20060;-86
2021/11/03 08:27:00;;;;;;;53.90;27.75;;;;;;;;;;5008971;28;20045;-86
2021/11/03 08:29:27;;;;;;;55.97;28.45;;;;;;;;;;5029733;28;20431;-87
2021/11/03 08:31:55;;;;;;;54.92;27.08;;;;;;;;;;5008861;28;20132;-86
2021/11/03 08:34:22;;;;;;;51.28;27.27;;;;;;;;;;5017778;28;20128;-86
2021/11/03 08:36:49;;;;;;;55.63;29.67;;;;;;;;;;5042294;28;20053;-86
2021/11/03 08:39:15;;;;;;;54.50;28.08;;;;;;;;;;5035245;28;20045;-86
2021/11/03 08:41:41;;;;;;;61.85;29.95;;;;;;;;;;5028874;28;20081;-85
2021/11/03 08:44:07;;;;;;;68.35;31.38;;;;;;;;;;5029347;28;20107;-86
2021/11/03 08:46:33;;;;;;;55.78;26.90;;;;;;;;;;5048349;28;20131;-86
2021/11/03 08:49:01;;;;;;;69.70;25.33;;;;;;;;;;5048288;28;20104;-86
2021/11/03 08:51:28;;;;;;;102.35;28.13;;;;;;;;;;5049083;28;20048;-86
2021/11/03 08:53:55;;;;;;;121.32;35.15;;;;;;;;;;5032387;28;20053;-87
2021/11/03 08:56:22;;;;;;;189.25;27.27;;;;;;;;;;5020130;28;20770;-87
2021/11/03 08:58:48;;;;;;;113.35;28.27;;;;;;;;;;5012682;28;20053;-86
2021/11/03 09:01:14;;;;;;;69.82;27.25;;;;;;;;;;5012687;28;20524;-86
2021/11/03 09:03:40;;;;;;;133.80;26.17;;;;;;;;;;5028523;28;20148;-86
2021/11/03 09:06:07;;;;;;;95.32;35.33;;;;;;;;;;5029108;28;20620;-86
2021/11/03 09:08:33;;;;;;;173.38;32.90;;;;;;;;;;5043537;28;20132;-87
2021/11/03 09:11:02;;;;;;;312.30;44.13;;;;;;;;;;5032569;28;20045;-86
2021/11/03 09:13:29;;;;;;;102.78;29.23;;;;;;;;;;5049020;28;20190;-86
2021/11/03 09:15:56;;;;;;;139.15;29.20;;;;;;;;;;5037270;28;20128;-85
2021/11/03 09:18:22;;;;;;;165.70;25.40;;;;;;;;;;5016573;28;20053;-86
2021/11/03 09:20:50;;;;;;;138.43;27.00;;;;;;;;;;5034601;28;20048;-85
2021/11/03 09:23:17;;;;;;;98.95;27.42;;;;;;;;;;5052905;28;20182;-86
2021/11/03 09:25:43;;;;;;;145.48;26.88;;;;;;;;;;5052443;28;20504;-85
2021/11/03 09:28:09;;;;;;;151.65;28.38;;;;;;;;;;5019880;28;20053;-87
2021/11/03 09:30:36;;;;;;;135.98;24.15;;;;;;;;;;5031994;28;20041;-86
2021/11/03 09:33:03;;;;;;;132.30;27.48;;;;;;;;;;5032448;28;20088;-86
2021/11/03 09:35:33;;;;;;;76.10;26.33;;;;;;;;;;5032905;28;20061;-87
2021/11/03 09:37:59;;;;;;;193.60;29.60;;;;;;;;;;5015310;28;20107;-86
2021/11/03 09:40:29;;;;;;;84.88;26.67;;;;;;;;;;5016546;28;20072;-86
2021/11/03 09:42:55;;;;;;;145.02;29.13;;;;;;;;;;5015502;28;20049;-85
2021/11/03 09:45:23;;;;;;;73.38;24.17;;;;;;;;;;5015839;28;20057;-86
2021/11/03 09:48:16;;;;;;;151.75;28.48;;;;;;;;;;5015170;28;20087;-87
2021/11/03 09:50:43;;;;;;;81.38;27.17;;;;;;;;;;5015503;28;20084;-85
2021/11/03 09:53:17;;;;;;;74.45;25.83;;;;;;;;;;5015829;28;20041;-86
2021/11/03 09:55:43;;;;;;;84.32;25.98;;;;;;;;;;5015663;28;20045;-86
2021/11/03 09:58:30;;;;;;;79.57;25.25;;;;;;;;;;5016066;28;20045;-86
2021/11/03 10:01:09;;;;;;;88.60;29.02;;;;;;;;;;5031843;28;20053;-85
2021/11/03 10:03:41;;;;;;;87.93;21.70;;;;;;;;;;5051671;28;20045;-86
2021/11/03 10:06:13;;;;;;;103.38;26.13;;;;;;;;;;5035359;28;20048;-85
2021/11/03 10:08:41;;;;;;;90.07;28.42;;;;;;;;;;5030555;28;20034;-85
2021/11/03 10:11:16;;;;;;;60.45;24.63;;;;;;;;;;5024031;28;20112;-86
2021/11/03 10:13:44;;;;;;;85.88;27.85;;;;;;;;;;5034864;28;20107;-86
2021/11/03 10:16:10;;;;;;;101.35;27.45;;;;;;;;;;5019885;28;20049;-86
2021/11/03 10:18:38;;;;;;;80.43;30.42;;;;;;;;;;5014943;28;20048;-86
2021/11/03 10:21:17;;;;;;;66.10;27.85;;;;;;;;;;5019656;28;20037;-86
2021/11/03 10:23:51;;;;;;;84.18;37.28;;;;;;;;;;5023661;28;20073;-86
2021/11/03 10:26:17;;;;;;;75.47;31.33;;;;;;;;;;5004193;28;20048;-86
2021/11/03 10:28:45;;;;;;;68.32;21.60;;;;;;;;;;5014436;28;20038;-85
2021/11/03 10:31:38;;;;;;;50.53;20.65;;;;;;;;;;5031871;28;20145;-86
2021/11/03 10:34:05;;;;;;;57.72;25.98;;;;;;;;;;5006917;28;20088;-85
2021/11/03 10:36:42;;;;;;;45.67;25.98;;;;;;;;;;5015068;28;20052;-87
2021/11/03 10:39:17;;;;;;;59.80;24.00;;;;;;;;;;5031086;28;20034;-86
2021/11/03 10:41:43;;;;;;;62.90;25.67;;;;;;;;;;5030813;28;20087;-86
2021/11/03 10:44:24;;;;;;;39.08;22.70;;;;;;;;;;5031063;28;20063;-86
2021/11/03 10:46:56;;;;;;;58.25;21.20;;;;;;;;;;5014321;28;20053;-85
2021/11/03 10:49:25;;;;;;;43.50;22.77;;;;;;;;;;5031074;28;20184;-86
2021/11/03 10:52:18;;;;;;;34.88;22.80;;;;;;;;;;5013971;28;20924;-85
2021/11/03 10:54:46;;;;;;;37.78;22.70;;;;;;;;;;5010886;28;20057;-86
2021/11/03 10:57:20;;;;;;;35.72;22.58;;;;;;;;;;5032254;28;20056;-85
2021/11/03 10:59:51;;;;;;;34.88;23.73;;;;;;;;;;5014316;28;20055;-85
2021/11/03 11:02:23;;;;;;;35.15;23.17;;;;;;;;;;5031781;28;20045;-85
2021/11/03 11:04:50;;;;;;;31.95;22.88;;;;;;;;;;5027941;28;20045;-85
2021/11/03 11:07:30;;;;;;;31.48;20.90;;;;;;;;;;5003621;28;20048;-85
2021/11/03 11:10:15;;;;;;;28.02;20.35;;;;;;;;;;5013487;28;20049;-85
2021/11/03 11:12:43;;;;;;;25.43;19.27;;;;;;;;;;5013513;28;20485;-86
2021/11/03 11:15:25;;;;;;;29.33;21.50;;;;;;;;;;5013693;28;20050;-85
2021/11/03 11:18:04;;;;;;;29.15;21.17;;;;;;;;;;5046472;28;20115;-85
2021/11/03 11:20:59;;;;;;;28.20;19.33;;;;;;;;;;5040501;28;20099;-85
2021/11/03 11:23:34;;;;;;;27.30;19.38;;;;;;;;;;5004318;28;20117;-85
2021/11/03 11:26:06;;;;;;;25.33;19.42;;;;;;;;;;5015235;28;20053;-85
2021/11/03 11:28:51;;;;;;;28.33;20.90;;;;;;;;;;5015254;28;20037;-84
2021/11/03 11:31:35;;;;;;;26.02;19.10;;;;;;;;;;5037233;28;20132;-85
2021/11/03 11:34:01;;;;;;;28.67;20.35;;;;;;;;;;5034000;28;20088;-85
2021/11/03 11:36:43;;;;;;;27.15;20.08;;;;;;;;;;5033790;28;20417;-86
2021/11/03 11:39:15;;;;;;;27.42;21.02;;;;;;;;;;5035946;28;20053;-85
2021/11/03 11:42:00;;;;;;;27.65;20.88;;;;;;;;;;5029969;28;20053;-85
2021/11/03 11:44:30;;;;;;;30.00;21.42;;;;;;;;;;5029703;28;20053;-85
2021/11/03 11:46:58;;;;;;;29.45;21.85;;;;;;;;;;5030870;28;20499;-84
2021/11/03 11:49:27;;;;;;;26.33;19.50;;;;;;;;;;5013281;28;20037;-85
2021/11/03 11:52:01;;;;;;;25.85;19.65;;;;;;;;;;5012997;28;20920;-85
2021/11/03 11:54:30;;;;;;;28.83;21.45;;;;;;;;;;5027038;28;20048;-85
2021/11/03 11:57:11;;;;;;;24.88;19.30;;;;;;;;;;5049544;28;20419;-85
2021/11/03 11:59:56;;;;;;;23.13;17.73;;;;;;;;;;5032834;28;20037;-84
2021/11/03 12:02:23;;;;;;;26.25;19.05;;;;;;;;;;5033161;28;20044;-85
2021/11/03 12:04:49;;;;;;;26.48;20.25;;;;;;;;;;5047413;28;20131;-85
2021/11/03 12:07:23;;;;;;;24.63;18.80;;;;;;;;;;5033520;28;20053;-85
2021/11/03 12:09:59;;;;;;;27.50;19.98;;;;;;;;;;5030101;28;20501;-85
2021/11/03 12:12:25;;;;;;;25.95;19.60;;;;;;;;;;5029476;28;20132;-84
2021/11/03 12:14:52;;;;;;;24.95;19.83;;;;;;;;;;5029294;28;20041;-84
2021/11/03 12:17:21;;;;;;;27.27;20.65;;;;;;;;;;5046354;28;20053;-84
2021/11/03 12:19:52;;;;;;;25.17;19.13;;;;;;;;;;5038909;28;20049;-85
2021/11/03 12:22:20;;;;;;;24.05;18.65;;;;;;;;;;5010738;28;20054;-85
2021/11/03 12:24:50;;;;;;;24.75;19.30;;;;;;;;;;4997348;28;20114;-84
2021/11/03 12:27:23;;;;;;;23.30;18.08;;;;;;;;;;5029316;28;20042;-86
2021/11/03 12:29:57;;;;;;;44.00;30.00;;;;;;;;;;5012691;28;20057;-86
2021/11/03 12:32:39;;;;;;;27.02;19.60;;;;;;;;;;5029370;28;20099;-85
2021/11/03 12:35:18;;;;;;;26.10;19.52;;;;;;;;;;5013671;28;20084;-86
2021/11/03 12:37:45;;;;;;;25.90;20.48;;;;;;;;;;5034164;28;20053;-85
2021/11/03 12:40:26;;;;;;;24.08;18.70;;;;;;;;;;5039728;28;20045;-84
2021/11/03 12:42:55;;;;;;;24.63;18.73;;;;;;;;;;5032590;28;20047;-85
2021/11/03 12:45:32;;;;;;;28.80;20.00;;;;;;;;;;5048713;28;20382;-85
2021/11/03 12:47:59;;;;;;;29.05;21.17;;;;;;;;;;5048429;28;20036;-84
2021/11/03 12:50:25;;;;;;;35.08;22.42;;;;;;;;;;5028837;28;20400;-84
2021/11/03 12:52:56;;;;;;;26.92;20.77;;;;;;;;;;5028665;28;20111;-84
2021/11/03 12:55:25;;;;;;;27.02;20.25;;;;;;;;;;5013074;28;20118;-84
2021/11/03 12:57:52;;;;;;;28.65;22.20;;;;;;;;;;5012231;28;20444;-84
2021/11/03 13:00:19;;;;;;;27.95;21.88;;;;;;;;;;5012671;28;20058;-84
2021/11/03 13:02:53;;;;;;;29.00;21.15;;;;;;;;;;5012070;28;20080;-84
2021/11/03 13:05:22;;;;;;;26.88;20.95;;;;;;;;;;5028954;28;20425;-84
2021/11/03 13:07:48;;;;;;;25.15;20.27;;;;;;;;;;5027851;28;20053;-84
2021/11/03 13:10:20;;;;;;;23.17;19.17;;;;;;;;;;5012538;28;20053;-84
2021/11/03 13:13:06;;;;;;;23.08;18.00;;;;;;;;;;5029881;28;20076;-84
2021/11/03 13:15:33;;;;;;;23.40;18.88;;;;;;;;;;5036868;28;20056;-85
2021/11/03 13:18:11;;;;;;;23.20;18.70;;;;;;;;;;5012976;28;20088;-84
2021/11/03 13:20:40;;;;;;;26.30;18.88;;;;;;;;;;5028238;28;20512;-86
2021/11/03 13:23:07;;;;;;;25.60;19.65;;;;;;;;;;5053556;28;20071;-84
2021/11/03 13:25:38;;;;;;;22.95;17.83;;;;;;;;;;5048905;28;20102;-84
2021/11/03 13:28:06;;;;;;;23.35;18.65;;;;;;;;;;5034313;28;20048;-85
2021/11/03 13:30:34;;;;;;;30.48;20.73;;;;;;;;;;5006870;28;20084;-85
2021/11/03 13:33:02;;;;;;;26.40;20.75;;;;;;;;;;5011914;28;20525;-85
2021/11/03 13:35:33;;;;;;;22.63;17.33;;;;;;;;;;5008445;28;20054;-85
2021/11/03 13:38:01;;;;;;;26.67;19.73;;;;;;;;;;5010386;28;20050;-86
2021/11/03 13:40:38;;;;;;;25.02;19.05;;;;;;;;;;5028605;28;20489;-85
2021/11/03 13:43:10;;;;;;;26.65;18.42;;;;;;;;;;5029080;28;20061;-85
2021/11/03 13:45:39;;;;;;;23.77;19.08;;;;;;;;;;5011342;28;20057;-86
2021/11/03 13:48:15;;;;;;;24.60;19.45;;;;;;;;;;5012281;28;20064;-85
2021/11/03 13:50:50;;;;;;;23.63;18.58;;;;;;;;;;5028045;28;20045;-85
2021/11/03 13:53:16;;;;;;;24.27;18.10;;;;;;;;;;5023311;28;20080;-85
2021/11/03 13:55:54;;;;;;;25.30;19.60;;;;;;;;;;5048379;28;20045;-87
2021/11/03 13:58:36;;;;;;;23.27;16.75;;;;;;;;;;5026235;28;20046;-84
2021/11/03 14:01:12;;;;;;;25.13;19.17;;;;;;;;;;5018060;28;20052;-86
2021/11/03 14:03:45;;;;;;;24.65;19.38;;;;;;;;;;5014845;28;20064;-84
2021/11/03 14:06:25;;;;;;;24.90;18.23;;;;;;;;;;5031879;28;20409;-84
2021/11/03 14:08:52;;;;;;;24.70;18.48;;;;;;;;;;5014963;28;20541;-84
2021/11/03 14:11:19;;;;;;;25.23;18.85;;;;;;;;;;5031986;28;20094;-84
2021/11/03 14:13:45;;;;;;;24.65;18.02;;;;;;;;;;5015058;28;20084;-85
2021/11/03 14:16:17;;;;;;;25.77;18.45;;;;;;;;;;5015192;28;20057;-86
2021/11/03 14:18:43;;;;;;;25.50;19.20;;;;;;;;;;5031306;28;20473;-84
2021/11/03 14:21:09;;;;;;;25.55;18.75;;;;;;;;;;5048354;28;20095;-84
2021/11/03 14:23:35;;;;;;;23.77;18.05;;;;;;;;;;5031812;28;20044;-85
2021/11/03 14:26:01;;;;;;;26.38;18.83;;;;;;;;;;5030757;28;20129;-84
2021/11/03 14:28:28;;;;;;;23.48;18.38;;;;;;;;;;5014994;28;20095;-84
2021/11/03 14:30:56;;;;;;;26.02;19.35;;;;;;;;;;5014379;28;20106;-84
2021/11/03 14:33:26;;;;;;;25.75;18.15;;;;;;;;;;5015388;28;20060;-84
2021/11/03 14:35:52;;;;;;;23.77;18.67;;;;;;;;;;5014235;28;20287;-85